sensor_id;sensor_type;location;lat;lon;timestamp;temperature;humidity
66102;HTU21D;52883;51.094;5.880;2023-04-21T00:00:45;6.96;118.99
66102;HTU21D;52883;51.094;5.880;2023-04-21T00:03:11;6.91;118.99
66102;HTU21D;52883;51.094;5.880;2023-04-21T00:05:37;6.88;118.99
66102;HTU21D;52883;51.094;5.880;2023-04-21T00:08:07;6.83;118.99
66102;HTU21D;52883;51.094;5.880;2023-04-21T00:10:33;6.81;118.99
66102;HTU21D;52883;51.094;5.880;2023-04-21T00:12:59;6.78;118.99
66102;HTU21D;52883;51.094;5.880;2023-04-21T00:15:24;6.76;118.99
66102;HTU21D;52883;51.094;5.880;2023-04-21T00:17:50;6.79;118.99
66102;HTU21D;52883;51.094;5.880;2023-04-21T00:20:16;6.81;118.99
66102;HTU21D;52883;51.094;5.880;2023-04-21T00:22:42;6.79;118.99
66102;HTU21D;52883;51.094;5.880;2023-04-21T00:25:07;6.80;118.99
66102;HTU21D;52883;51.094;5.880;2023-04-21T00:27:33;6.80;118.99
66102;HTU21D;52883;51.094;5.880;2023-04-21T00:29:59;6.79;118.99
66102;HTU21D;52883;51.094;5.880;2023-04-21T00:32:24;6.79;118.99
66102;HTU21D;52883;51.094;5.880;2023-04-21T00:34:50;6.82;118.99
66102;HTU21D;52883;51.094;5.880;2023-04-21T00:37:16;6.79;118.99
66102;HTU21D;52883;51.094;5.880;2023-04-21T00:39:42;6.78;118.99
66102;HTU21D;52883;51.094;5.880;2023-04-21T00:42:08;6.81;118.99
66102;HTU21D;52883;51.094;5.880;2023-04-21T00:44:34;6.81;118.99
66102;HTU21D;52883;51.094;5.880;2023-04-21T00:47:00;6.81;118.99
66102;HTU21D;52883;51.094;5.880;2023-04-21T00:49:25;6.86;118.99
66102;HTU21D;52883;51.094;5.880;2023-04-21T00:51:51;6.85;118.99
66102;HTU21D;52883;51.094;5.880;2023-04-21T00:54:18;6.79;118.99
66102;HTU21D;52883;51.094;5.880;2023-04-21T00:56:44;6.80;118.99
66102;HTU21D;52883;51.094;5.880;2023-04-21T00:59:10;6.79;118.99
66102;HTU21D;52883;51.094;5.880;2023-04-21T01:01:35;6.80;118.99
66102;HTU21D;52883;51.094;5.880;2023-04-21T01:04:03;6.81;118.99
66102;HTU21D;52883;51.094;5.880;2023-04-21T01:06:31;6.84;118.99
66102;HTU21D;52883;51.094;5.880;2023-04-21T01:08:57;6.86;118.99
66102;HTU21D;52883;51.094;5.880;2023-04-21T01:11:23;6.87;118.99
66102;HTU21D;52883;51.094;5.880;2023-04-21T01:13:52;6.90;118.99
66102;HTU21D;52883;51.094;5.880;2023-04-21T01:16:19;6.93;118.99
66102;HTU21D;52883;51.094;5.880;2023-04-21T01:18:46;6.91;118.99
66102;HTU21D;52883;51.094;5.880;2023-04-21T01:21:12;6.93;118.99
66102;HTU21D;52883;51.094;5.880;2023-04-21T01:23:42;6.90;118.99
66102;HTU21D;52883;51.094;5.880;2023-04-21T01:26:08;6.89;118.99
66102;HTU21D;52883;51.094;5.880;2023-04-21T01:28:35;6.89;118.99
66102;HTU21D;52883;51.094;5.880;2023-04-21T01:31:04;6.89;118.99
66102;HTU21D;52883;51.094;5.880;2023-04-21T01:33:30;6.91;118.99
66102;HTU21D;52883;51.094;5.880;2023-04-21T01:35:57;6.95;118.99
66102;HTU21D;52883;51.094;5.880;2023-04-21T01:38:23;6.98;118.99
66102;HTU21D;52883;51.094;5.880;2023-04-21T01:40:52;7.02;118.99
66102;HTU21D;52883;51.094;5.880;2023-04-21T01:43:23;7.02;118.99
66102;HTU21D;52883;51.094;5.880;2023-04-21T01:45:50;7.09;118.99
66102;HTU21D;52883;51.094;5.880;2023-04-21T01:48:16;7.13;118.99
66102;HTU21D;52883;51.094;5.880;2023-04-21T01:50:42;7.18;118.99
66102;HTU21D;52883;51.094;5.880;2023-04-21T01:53:09;7.25;118.99
66102;HTU21D;52883;51.094;5.880;2023-04-21T01:55:34;7.28;118.99
66102;HTU21D;52883;51.094;5.880;2023-04-21T01:58:00;7.32;118.99
66102;HTU21D;52883;51.094;5.880;2023-04-21T02:00:26;7.34;118.99
66102;HTU21D;52883;51.094;5.880;2023-04-21T02:02:52;7.33;118.99
66102;HTU21D;52883;51.094;5.880;2023-04-21T02:05:17;7.31;118.99
66102;HTU21D;52883;51.094;5.880;2023-04-21T02:07:43;7.29;118.99
66102;HTU21D;52883;51.094;5.880;2023-04-21T02:10:10;7.31;118.99
66102;HTU21D;52883;51.094;5.880;2023-04-21T02:12:36;7.32;118.99
66102;HTU21D;52883;51.094;5.880;2023-04-21T02:15:03;7.34;118.99
66102;HTU21D;52883;51.094;5.880;2023-04-21T02:17:29;7.38;118.99
66102;HTU21D;52883;51.094;5.880;2023-04-21T02:19:55;7.37;118.99
66102;HTU21D;52883;51.094;5.880;2023-04-21T02:22:21;7.35;118.99
66102;HTU21D;52883;51.094;5.880;2023-04-21T02:24:48;7.37;118.99
66102;HTU21D;52883;51.094;5.880;2023-04-21T02:27:14;7.35;118.99
66102;HTU21D;52883;51.094;5.880;2023-04-21T02:29:40;7.37;118.99
66102;HTU21D;52883;51.094;5.880;2023-04-21T02:32:06;7.39;118.99
66102;HTU21D;52883;51.094;5.880;2023-04-21T02:34:32;7.40;118.99
66102;HTU21D;52883;51.094;5.880;2023-04-21T02:36:58;7.40;118.99
66102;HTU21D;52883;51.094;5.880;2023-04-21T02:39:25;7.34;118.99
66102;HTU21D;52883;51.094;5.880;2023-04-21T02:41:50;7.27;118.99
66102;HTU21D;52883;51.094;5.880;2023-04-21T02:44:16;7.17;118.99
66102;HTU21D;52883;51.094;5.880;2023-04-21T02:46:43;7.11;118.99
66102;HTU21D;52883;51.094;5.880;2023-04-21T02:49:09;7.05;118.99
66102;HTU21D;52883;51.094;5.880;2023-04-21T02:51:35;7.03;118.99
66102;HTU21D;52883;51.094;5.880;2023-04-21T02:54:01;7.05;118.99
66102;HTU21D;52883;51.094;5.880;2023-04-21T02:56:28;7.04;118.99
66102;HTU21D;52883;51.094;5.880;2023-04-21T02:58:53;7.00;118.99
66102;HTU21D;52883;51.094;5.880;2023-04-21T03:01:19;6.91;118.99
66102;HTU21D;52883;51.094;5.880;2023-04-21T03:03:45;6.84;118.99
66102;HTU21D;52883;51.094;5.880;2023-04-21T03:06:10;6.82;118.99
66102;HTU21D;52883;51.094;5.880;2023-04-21T03:08:37;6.87;118.99
66102;HTU21D;52883;51.094;5.880;2023-04-21T03:11:04;6.93;118.99
66102;HTU21D;52883;51.094;5.880;2023-04-21T03:13:30;6.97;118.99
66102;HTU21D;52883;51.094;5.880;2023-04-21T03:15:55;7.00;118.99
66102;HTU21D;52883;51.094;5.880;2023-04-21T03:18:22;7.02;118.99
66102;HTU21D;52883;51.094;5.880;2023-04-21T03:20:49;7.03;118.99
66102;HTU21D;52883;51.094;5.880;2023-04-21T03:23:15;7.04;118.99
66102;HTU21D;52883;51.094;5.880;2023-04-21T03:25:41;6.98;118.99
66102;HTU21D;52883;51.094;5.880;2023-04-21T03:28:07;6.89;118.99
66102;HTU21D;52883;51.094;5.880;2023-04-21T03:30:33;6.78;118.99
66102;HTU21D;52883;51.094;5.880;2023-04-21T03:32:59;6.69;118.99
66102;HTU21D;52883;51.094;5.880;2023-04-21T03:35:24;6.58;118.99
66102;HTU21D;52883;51.094;5.880;2023-04-21T03:37:50;6.52;118.99
66102;HTU21D;52883;51.094;5.880;2023-04-21T03:40:16;6.39;118.99
66102;HTU21D;52883;51.094;5.880;2023-04-21T03:42:42;6.30;118.99
66102;HTU21D;52883;51.094;5.880;2023-04-21T03:45:08;6.20;118.99
66102;HTU21D;52883;51.094;5.880;2023-04-21T03:47:35;6.12;118.99
66102;HTU21D;52883;51.094;5.880;2023-04-21T03:50:04;6.04;118.99
66102;HTU21D;52883;51.094;5.880;2023-04-21T03:52:30;5.98;118.99
66102;HTU21D;52883;51.094;5.880;2023-04-21T03:54:56;5.92;118.99
66102;HTU21D;52883;51.094;5.880;2023-04-21T03:57:21;5.87;118.99
66102;HTU21D;52883;51.094;5.880;2023-04-21T03:59:47;5.83;118.99
66102;HTU21D;52883;51.094;5.880;2023-04-21T04:02:13;5.76;118.99
66102;HTU21D;52883;51.094;5.880;2023-04-21T04:04:38;5.70;118.99
66102;HTU21D;52883;51.094;5.880;2023-04-21T04:07:04;5.68;118.99
66102;HTU21D;52883;51.094;5.880;2023-04-21T04:09:32;5.68;118.99
66102;HTU21D;52883;51.094;5.880;2023-04-21T04:11:57;5.69;118.99
66102;HTU21D;52883;51.094;5.880;2023-04-21T04:14:23;5.70;118.99
66102;HTU21D;52883;51.094;5.880;2023-04-21T04:16:48;5.74;118.99
66102;HTU21D;52883;51.094;5.880;2023-04-21T04:19:14;5.75;118.99
66102;HTU21D;52883;51.094;5.880;2023-04-21T04:21:40;5.74;118.99
66102;HTU21D;52883;51.094;5.880;2023-04-21T04:24:06;5.67;118.99
66102;HTU21D;52883;51.094;5.880;2023-04-21T04:26:33;5.62;118.99
66102;HTU21D;52883;51.094;5.880;2023-04-21T04:28:59;5.57;118.99
66102;HTU21D;52883;51.094;5.880;2023-04-21T04:31:28;5.54;118.99
66102;HTU21D;52883;51.094;5.880;2023-04-21T04:33:55;5.48;118.99
66102;HTU21D;52883;51.094;5.880;2023-04-21T04:36:21;5.45;118.99
66102;HTU21D;52883;51.094;5.880;2023-04-21T04:38:47;5.38;118.99
66102;HTU21D;52883;51.094;5.880;2023-04-21T04:41:13;5.37;118.99
66102;HTU21D;52883;51.094;5.880;2023-04-21T04:43:40;5.37;118.99
66102;HTU21D;52883;51.094;5.880;2023-04-21T04:46:06;5.39;118.99
66102;HTU21D;52883;51.094;5.880;2023-04-21T04:48:33;5.40;118.99
66102;HTU21D;52883;51.094;5.880;2023-04-21T04:50:59;5.41;118.99
66102;HTU21D;52883;51.094;5.880;2023-04-21T04:53:27;5.42;118.99
66102;HTU21D;52883;51.094;5.880;2023-04-21T04:55:52;5.47;118.99
66102;HTU21D;52883;51.094;5.880;2023-04-21T04:58:18;5.55;118.99
66102;HTU21D;52883;51.094;5.880;2023-04-21T05:00:44;5.60;118.99
66102;HTU21D;52883;51.094;5.880;2023-04-21T05:03:09;5.61;118.99
66102;HTU21D;52883;51.094;5.880;2023-04-21T05:05:35;5.63;118.99
66102;HTU21D;52883;51.094;5.880;2023-04-21T05:08:00;5.62;118.99
66102;HTU21D;52883;51.094;5.880;2023-04-21T05:10:26;5.67;118.99
66102;HTU21D;52883;51.094;5.880;2023-04-21T05:12:51;5.71;118.99
66102;HTU21D;52883;51.094;5.880;2023-04-21T05:15:17;5.70;118.99
66102;HTU21D;52883;51.094;5.880;2023-04-21T05:17:43;5.71;118.99
66102;HTU21D;52883;51.094;5.880;2023-04-21T05:20:09;5.74;118.99
66102;HTU21D;52883;51.094;5.880;2023-04-21T05:22:38;5.74;118.99
66102;HTU21D;52883;51.094;5.880;2023-04-21T05:25:05;5.75;118.99
66102;HTU21D;52883;51.094;5.880;2023-04-21T05:27:31;5.79;118.99
66102;HTU21D;52883;51.094;5.880;2023-04-21T05:29:58;5.85;118.99
66102;HTU21D;52883;51.094;5.880;2023-04-21T05:32:24;5.95;118.99
66102;HTU21D;52883;51.094;5.880;2023-04-21T05:34:50;6.05;118.99
66102;HTU21D;52883;51.094;5.880;2023-04-21T05:37:15;6.31;118.99
66102;HTU21D;52883;51.094;5.880;2023-04-21T05:39:41;6.63;118.99
66102;HTU21D;52883;51.094;5.880;2023-04-21T05:42:08;6.89;118.99
66102;HTU21D;52883;51.094;5.880;2023-04-21T05:44:34;6.96;118.99
66102;HTU21D;52883;51.094;5.880;2023-04-21T05:47:00;6.93;118.99
66102;HTU21D;52883;51.094;5.880;2023-04-21T05:49:25;7.10;118.99
66102;HTU21D;52883;51.094;5.880;2023-04-21T05:51:51;7.59;118.99
66102;HTU21D;52883;51.094;5.880;2023-04-21T05:54:16;8.16;118.99
66102;HTU21D;52883;51.094;5.880;2023-04-21T05:56:42;8.76;118.99
66102;HTU21D;52883;51.094;5.880;2023-04-21T05:59:08;9.32;118.99
66102;HTU21D;52883;51.094;5.880;2023-04-21T06:01:33;9.97;118.99
66102;HTU21D;52883;51.094;5.880;2023-04-21T06:03:59;10.54;118.99
66102;HTU21D;52883;51.094;5.880;2023-04-21T06:06:25;10.87;118.99
66102;HTU21D;52883;51.094;5.880;2023-04-21T06:08:52;11.23;118.99
66102;HTU21D;52883;51.094;5.880;2023-04-21T06:11:18;11.40;118.99
66102;HTU21D;52883;51.094;5.880;2023-04-21T06:13:43;11.72;118.99
66102;HTU21D;52883;51.094;5.880;2023-04-21T06:16:09;11.83;118.99
66102;HTU21D;52883;51.094;5.880;2023-04-21T06:18:34;11.92;118.99
66102;HTU21D;52883;51.094;5.880;2023-04-21T06:21:00;11.99;118.99
66102;HTU21D;52883;51.094;5.880;2023-04-21T06:23:26;12.20;118.99
66102;HTU21D;52883;51.094;5.880;2023-04-21T06:25:59;12.30;118.99
66102;HTU21D;52883;51.094;5.880;2023-04-21T06:28:25;12.33;118.99
66102;HTU21D;52883;51.094;5.880;2023-04-21T06:30:51;12.05;118.99
66102;HTU21D;52883;51.094;5.880;2023-04-21T06:33:16;12.17;118.99
66102;HTU21D;52883;51.094;5.880;2023-04-21T06:35:42;12.13;118.99
66102;HTU21D;52883;51.094;5.880;2023-04-21T06:38:08;11.42;118.99
66102;HTU21D;52883;51.094;5.880;2023-04-21T06:40:33;11.48;118.99
66102;HTU21D;52883;51.094;5.880;2023-04-21T06:42:59;11.44;118.99
66102;HTU21D;52883;51.094;5.880;2023-04-21T06:45:24;11.22;118.99
66102;HTU21D;52883;51.094;5.880;2023-04-21T06:47:50;11.86;118.99
66102;HTU21D;52883;51.094;5.880;2023-04-21T06:50:16;12.61;118.99
66102;HTU21D;52883;51.094;5.880;2023-04-21T06:52:41;13.30;118.99
66102;HTU21D;52883;51.094;5.880;2023-04-21T06:55:07;13.56;118.99
66102;HTU21D;52883;51.094;5.880;2023-04-21T06:57:32;13.85;118.99
66102;HTU21D;52883;51.094;5.880;2023-04-21T06:59:58;13.99;118.99
66102;HTU21D;52883;51.094;5.880;2023-04-21T07:02:24;14.19;118.99
66102;HTU21D;52883;51.094;5.880;2023-04-21T07:04:50;13.88;118.99
66102;HTU21D;52883;51.094;5.880;2023-04-21T07:07:15;13.24;118.99
66102;HTU21D;52883;51.094;5.880;2023-04-21T07:09:41;12.21;118.99
66102;HTU21D;52883;51.094;5.880;2023-04-21T07:12:06;11.41;118.99
66102;HTU21D;52883;51.094;5.880;2023-04-21T07:14:32;11.02;118.99
66102;HTU21D;52883;51.094;5.880;2023-04-21T07:16:57;10.96;118.99
66102;HTU21D;52883;51.094;5.880;2023-04-21T07:19:23;11.24;118.99
66102;HTU21D;52883;51.094;5.880;2023-04-21T07:21:49;11.01;118.99
66102;HTU21D;52883;51.094;5.880;2023-04-21T07:24:14;10.65;118.99
66102;HTU21D;52883;51.094;5.880;2023-04-21T07:26:40;10.72;118.99
66102;HTU21D;52883;51.094;5.880;2023-04-21T07:29:06;10.72;118.99
66102;HTU21D;52883;51.094;5.880;2023-04-21T07:31:32;10.63;118.99
66102;HTU21D;52883;51.094;5.880;2023-04-21T07:33:58;10.52;118.99
66102;HTU21D;52883;51.094;5.880;2023-04-21T07:36:23;10.41;118.99
66102;HTU21D;52883;51.094;5.880;2023-04-21T07:38:50;10.37;118.99
66102;HTU21D;52883;51.094;5.880;2023-04-21T07:41:16;10.43;118.99
66102;HTU21D;52883;51.094;5.880;2023-04-21T07:43:41;10.45;118.99
66102;HTU21D;52883;51.094;5.880;2023-04-21T07:46:07;10.73;118.99
66102;HTU21D;52883;51.094;5.880;2023-04-21T07:48:32;11.04;118.99
66102;HTU21D;52883;51.094;5.880;2023-04-21T07:50:58;10.98;118.99
66102;HTU21D;52883;51.094;5.880;2023-04-21T07:53:25;11.51;118.99
66102;HTU21D;52883;51.094;5.880;2023-04-21T07:55:51;11.58;118.99
66102;HTU21D;52883;51.094;5.880;2023-04-21T07:58:17;11.81;118.99
66102;HTU21D;52883;51.094;5.880;2023-04-21T08:00:42;11.75;118.99
66102;HTU21D;52883;51.094;5.880;2023-04-21T08:03:08;11.56;118.99
66102;HTU21D;52883;51.094;5.880;2023-04-21T08:05:33;11.53;118.99
66102;HTU21D;52883;51.094;5.880;2023-04-21T08:07:59;11.57;118.99
66102;HTU21D;52883;51.094;5.880;2023-04-21T08:10:25;11.72;118.99
66102;HTU21D;52883;51.094;5.880;2023-04-21T08:12:50;12.40;118.99
66102;HTU21D;52883;51.094;5.880;2023-04-21T08:15:16;12.76;118.99
66102;HTU21D;52883;51.094;5.880;2023-04-21T08:17:42;13.01;118.99
66102;HTU21D;52883;51.094;5.880;2023-04-21T08:20:09;13.40;118.99
66102;HTU21D;52883;51.094;5.880;2023-04-21T08:22:34;13.94;118.99
66102;HTU21D;52883;51.094;5.880;2023-04-21T08:25:02;14.58;118.99
66102;HTU21D;52883;51.094;5.880;2023-04-21T08:27:28;14.77;118.99
66102;HTU21D;52883;51.094;5.880;2023-04-21T08:29:53;14.39;118.99
66102;HTU21D;52883;51.094;5.880;2023-04-21T08:32:19;14.24;118.99
66102;HTU21D;52883;51.094;5.880;2023-04-21T08:34:52;14.24;118.99
66102;HTU21D;52883;51.094;5.880;2023-04-21T08:37:19;14.52;118.99
66102;HTU21D;52883;51.094;5.880;2023-04-21T08:39:46;14.86;118.99
66102;HTU21D;52883;51.094;5.880;2023-04-21T08:42:16;15.69;118.99
66102;HTU21D;52883;51.094;5.880;2023-04-21T08:44:41;16.05;118.99
66102;HTU21D;52883;51.094;5.880;2023-04-21T08:47:12;16.36;118.99
66102;HTU21D;52883;51.094;5.880;2023-04-21T08:49:39;16.67;118.99
66102;HTU21D;52883;51.094;5.880;2023-04-21T08:52:06;17.05;118.99
66102;HTU21D;52883;51.094;5.880;2023-04-21T08:54:32;17.40;118.99
66102;HTU21D;52883;51.094;5.880;2023-04-21T08:56:58;17.78;118.99
66102;HTU21D;52883;51.094;5.880;2023-04-21T08:59:23;18.09;114.74
66102;HTU21D;52883;51.094;5.880;2023-04-21T09:02:08;18.15;106.90
66102;HTU21D;52883;51.094;5.880;2023-04-21T09:04:38;18.08;118.99
66102;HTU21D;52883;51.094;5.880;2023-04-21T09:07:05;18.04;116.96
66102;HTU21D;52883;51.094;5.880;2023-04-21T09:09:30;17.98;107.37
66102;HTU21D;52883;51.094;5.880;2023-04-21T09:11:57;17.83;99.16
66102;HTU21D;52883;51.094;5.880;2023-04-21T09:14:33;17.91;99.59
66102;HTU21D;52883;51.094;5.880;2023-04-21T09:17:01;17.83;112.72
66102;HTU21D;52883;51.094;5.880;2023-04-21T09:19:28;18.07;106.10
66102;HTU21D;52883;51.094;5.880;2023-04-21T09:21:53;18.08;98.34
66102;HTU21D;52883;51.094;5.880;2023-04-21T09:24:19;17.85;93.42
66102;HTU21D;52883;51.094;5.880;2023-04-21T09:26:49;17.87;107.59
66102;HTU21D;52883;51.094;5.880;2023-04-21T09:29:16;17.85;81.88
66102;HTU21D;52883;51.094;5.880;2023-04-21T09:31:43;17.69;87.83
66102;HTU21D;52883;51.094;5.880;2023-04-21T09:34:24;17.85;83.81
66102;HTU21D;52883;51.094;5.880;2023-04-21T09:37:01;18.00;83.55
66102;HTU21D;52883;51.094;5.880;2023-04-21T09:39:30;18.18;96.75
66102;HTU21D;52883;51.094;5.880;2023-04-21T09:41:57;18.44;79.46
66102;HTU21D;52883;51.094;5.880;2023-04-21T09:44:25;18.37;85.38
66102;HTU21D;52883;51.094;5.880;2023-04-21T09:46:59;18.10;87.47
66102;HTU21D;52883;51.094;5.880;2023-04-21T09:49:34;17.95;79.28
66102;HTU21D;52883;51.094;5.880;2023-04-21T09:52:02;18.02;83.39
66102;HTU21D;52883;51.094;5.880;2023-04-21T09:54:30;17.93;83.15
66102;HTU21D;52883;51.094;5.880;2023-04-21T09:57:02;18.10;73.17
66102;HTU21D;52883;51.094;5.880;2023-04-21T09:59:43;18.26;71.80
66102;HTU21D;52883;51.094;5.880;2023-04-21T10:02:10;18.35;74.59
66102;HTU21D;52883;51.094;5.880;2023-04-21T10:04:40;18.26;74.97
66102;HTU21D;52883;51.094;5.880;2023-04-21T10:07:06;18.26;74.92
66102;HTU21D;52883;51.094;5.880;2023-04-21T10:09:45;18.32;66.69
66102;HTU21D;52883;51.094;5.880;2023-04-21T10:12:13;18.57;72.21
66102;HTU21D;52883;51.094;5.880;2023-04-21T10:14:39;18.88;73.80
66102;HTU21D;52883;51.094;5.880;2023-04-21T10:17:09;18.72;70.29
66102;HTU21D;52883;51.094;5.880;2023-04-21T10:19:37;18.73;70.93
66102;HTU21D;52883;51.094;5.880;2023-04-21T10:22:12;18.91;68.66
66102;HTU21D;52883;51.094;5.880;2023-04-21T10:24:39;18.85;66.14
66102;HTU21D;52883;51.094;5.880;2023-04-21T10:27:09;18.71;67.00
66102;HTU21D;52883;51.094;5.880;2023-04-21T10:29:36;18.72;65.45
66102;HTU21D;52883;51.094;5.880;2023-04-21T10:32:02;18.82;66.04
66102;HTU21D;52883;51.094;5.880;2023-04-21T10:34:33;18.50;73.28
66102;HTU21D;52883;51.094;5.880;2023-04-21T10:39:48;19.02;72.47
66102;HTU21D;52883;51.094;5.880;2023-04-21T10:47:36;19.18;64.86
66102;HTU21D;52883;51.094;5.880;2023-04-21T10:50:12;19.01;64.44
66102;HTU21D;52883;51.094;5.880;2023-04-21T10:52:38;18.98;70.72
66102;HTU21D;52883;51.094;5.880;2023-04-21T10:55:08;19.39;63.96
66102;HTU21D;52883;51.094;5.880;2023-04-21T10:57:36;19.51;54.16
66102;HTU21D;52883;51.094;5.880;2023-04-21T11:00:03;19.60;64.91
66102;HTU21D;52883;51.094;5.880;2023-04-21T11:02:32;19.97;56.64
66102;HTU21D;52883;51.094;5.880;2023-04-21T11:05:00;19.76;61.68
66102;HTU21D;52883;51.094;5.880;2023-04-21T11:07:26;19.54;62.36
66102;HTU21D;52883;51.094;5.880;2023-04-21T11:09:59;19.59;58.80
66102;HTU21D;52883;51.094;5.880;2023-04-21T11:12:28;19.97;53.65
66102;HTU21D;52883;51.094;5.880;2023-04-21T11:14:55;19.88;53.94
66102;HTU21D;52883;51.094;5.880;2023-04-21T11:17:20;19.80;53.77
66102;HTU21D;52883;51.094;5.880;2023-04-21T11:19:55;19.91;58.42
66102;HTU21D;52883;51.094;5.880;2023-04-21T11:22:25;20.18;58.29
66102;HTU21D;52883;51.094;5.880;2023-04-21T11:24:55;20.22;58.40
66102;HTU21D;52883;51.094;5.880;2023-04-21T11:27:22;20.51;50.34
66102;HTU21D;52883;51.094;5.880;2023-04-21T11:29:49;20.59;46.71
66102;HTU21D;52883;51.094;5.880;2023-04-21T11:32:16;20.21;51.21
66102;HTU21D;52883;51.094;5.880;2023-04-21T11:34:42;20.22;48.31
66102;HTU21D;52883;51.094;5.880;2023-04-21T11:37:13;20.24;55.85
66102;HTU21D;52883;51.094;5.880;2023-04-21T11:39:42;20.40;51.64
66102;HTU21D;52883;51.094;5.880;2023-04-21T11:42:09;20.44;47.06
66102;HTU21D;52883;51.094;5.880;2023-04-21T11:44:40;20.68;50.35
66102;HTU21D;52883;51.094;5.880;2023-04-21T11:47:24;20.50;49.74
66102;HTU21D;52883;51.094;5.880;2023-04-21T11:49:54;20.66;50.91
66102;HTU21D;52883;51.094;5.880;2023-04-21T11:52:23;20.79;48.41
66102;HTU21D;52883;51.094;5.880;2023-04-21T11:57:27;20.51;47.09
66102;HTU21D;52883;51.094;5.880;2023-04-21T11:59:53;20.66;49.76
66102;HTU21D;52883;51.094;5.880;2023-04-21T12:02:29;21.06;50.81
66102;HTU21D;52883;51.094;5.880;2023-04-21T12:05:14;21.37;47.50
66102;HTU21D;52883;51.094;5.880;2023-04-21T12:07:44;21.60;46.02
66102;HTU21D;52883;51.094;5.880;2023-04-21T12:10:13;21.59;44.40
66102;HTU21D;52883;51.094;5.880;2023-04-21T12:12:41;21.28;45.62
66102;HTU21D;52883;51.094;5.880;2023-04-21T12:15:08;21.39;43.87
66102;HTU21D;52883;51.094;5.880;2023-04-21T12:17:38;21.70;43.97
66102;HTU21D;52883;51.094;5.880;2023-04-21T12:20:05;21.67;41.50
66102;HTU21D;52883;51.094;5.880;2023-04-21T12:22:31;21.36;42.46
66102;HTU21D;52883;51.094;5.880;2023-04-21T12:24:57;21.35;44.33
66102;HTU21D;52883;51.094;5.880;2023-04-21T12:27:22;21.50;45.99
66102;HTU21D;52883;51.094;5.880;2023-04-21T12:29:48;21.66;44.73
66102;HTU21D;52883;51.094;5.880;2023-04-21T12:32:14;21.53;40.62
66102;HTU21D;52883;51.094;5.880;2023-04-21T12:34:40;21.36;43.23
66102;HTU21D;52883;51.094;5.880;2023-04-21T12:37:06;21.38;44.22
66102;HTU21D;52883;51.094;5.880;2023-04-21T12:39:32;21.59;45.15
66102;HTU21D;52883;51.094;5.880;2023-04-21T12:41:58;21.43;40.84
66102;HTU21D;52883;51.094;5.880;2023-04-21T12:44:24;21.09;44.67
66102;HTU21D;52883;51.094;5.880;2023-04-21T12:46:51;21.04;45.33
66102;HTU21D;52883;51.094;5.880;2023-04-21T12:49:17;21.27;44.35
66102;HTU21D;52883;51.094;5.880;2023-04-21T12:51:43;21.58;43.17
66102;HTU21D;52883;51.094;5.880;2023-04-21T12:54:10;21.79;43.02
66102;HTU21D;52883;51.094;5.880;2023-04-21T12:56:36;22.11;41.81
66102;HTU21D;52883;51.094;5.880;2023-04-21T12:59:04;22.11;41.62
66102;HTU21D;52883;51.094;5.880;2023-04-21T13:01:30;22.05;39.30
66102;HTU21D;52883;51.094;5.880;2023-04-21T13:03:56;21.85;41.94
66102;HTU21D;52883;51.094;5.880;2023-04-21T13:06:21;21.99;39.94
66102;HTU21D;52883;51.094;5.880;2023-04-21T13:08:47;21.46;39.96
66102;HTU21D;52883;51.094;5.880;2023-04-21T13:11:12;21.27;41.22
66102;HTU21D;52883;51.094;5.880;2023-04-21T13:13:38;20.83;41.42
66102;HTU21D;52883;51.094;5.880;2023-04-21T13:16:04;20.79;39.44
66102;HTU21D;52883;51.094;5.880;2023-04-21T13:18:30;20.58;42.81
66102;HTU21D;52883;51.094;5.880;2023-04-21T13:20:55;20.51;42.55
66102;HTU21D;52883;51.094;5.880;2023-04-21T13:23:21;20.50;41.36
66102;HTU21D;52883;51.094;5.880;2023-04-21T13:25:46;20.20;41.26
66102;HTU21D;52883;51.094;5.880;2023-04-21T13:28:15;19.99;41.36
66102;HTU21D;52883;51.094;5.880;2023-04-21T13:30:41;20.25;41.09
66102;HTU21D;52883;51.094;5.880;2023-04-21T13:33:07;20.07;41.17
66102;HTU21D;52883;51.094;5.880;2023-04-21T13:35:33;19.97;40.14
66102;HTU21D;52883;51.094;5.880;2023-04-21T13:37:58;20.07;41.20
66102;HTU21D;52883;51.094;5.880;2023-04-21T13:40:24;20.41;40.62
66102;HTU21D;52883;51.094;5.880;2023-04-21T13:42:50;20.60;39.21
66102;HTU21D;52883;51.094;5.880;2023-04-21T13:45:16;20.73;38.43
66102;HTU21D;52883;51.094;5.880;2023-04-21T13:47:42;20.66;39.88
66102;HTU21D;52883;51.094;5.880;2023-04-21T13:50:08;20.77;39.78
66102;HTU21D;52883;51.094;5.880;2023-04-21T13:52:33;20.91;40.50
66102;HTU21D;52883;51.094;5.880;2023-04-21T13:55:01;21.08;37.53
66102;HTU21D;52883;51.094;5.880;2023-04-21T13:57:27;21.23;38.26
66102;HTU21D;52883;51.094;5.880;2023-04-21T13:59:52;21.61;39.51
66102;HTU21D;52883;51.094;5.880;2023-04-21T14:02:18;21.85;37.31
66102;HTU21D;52883;51.094;5.880;2023-04-21T14:04:47;21.82;36.00
66102;HTU21D;52883;51.094;5.880;2023-04-21T14:07:13;21.67;35.66
66102;HTU21D;52883;51.094;5.880;2023-04-21T14:09:42;21.57;34.95
66102;HTU21D;52883;51.094;5.880;2023-04-21T14:12:08;21.47;35.00
66102;HTU21D;52883;51.094;5.880;2023-04-21T14:14:34;21.88;34.69
66102;HTU21D;52883;51.094;5.880;2023-04-21T14:17:00;21.55;34.73
66102;HTU21D;52883;51.094;5.880;2023-04-21T14:19:26;21.51;34.59
66102;HTU21D;52883;51.094;5.880;2023-04-21T14:21:51;21.36;34.30
66102;HTU21D;52883;51.094;5.880;2023-04-21T14:24:17;21.13;35.48
66102;HTU21D;52883;51.094;5.880;2023-04-21T14:26:42;21.22;34.73
66102;HTU21D;52883;51.094;5.880;2023-04-21T14:29:08;21.57;34.76
66102;HTU21D;52883;51.094;5.880;2023-04-21T14:31:33;21.83;34.78
66102;HTU21D;52883;51.094;5.880;2023-04-21T14:33:59;22.03;35.43
66102;HTU21D;52883;51.094;5.880;2023-04-21T14:36:25;22.08;34.70
66102;HTU21D;52883;51.094;5.880;2023-04-21T14:38:52;22.02;33.06
66102;HTU21D;52883;51.094;5.880;2023-04-21T14:41:17;21.83;34.48
66102;HTU21D;52883;51.094;5.880;2023-04-21T14:43:43;21.75;33.99
66102;HTU21D;52883;51.094;5.880;2023-04-21T14:46:09;21.29;34.02
66102;HTU21D;52883;51.094;5.880;2023-04-21T14:48:34;20.92;35.92
66102;HTU21D;52883;51.094;5.880;2023-04-21T14:51:00;20.47;36.12
66102;HTU21D;52883;51.094;5.880;2023-04-21T14:53:26;20.18;34.28
66102;HTU21D;52883;51.094;5.880;2023-04-21T14:55:51;19.98;35.40
66102;HTU21D;52883;51.094;5.880;2023-04-21T14:58:17;19.98;34.28
66102;HTU21D;52883;51.094;5.880;2023-04-21T15:00:42;20.07;34.89
66102;HTU21D;52883;51.094;5.880;2023-04-21T15:03:08;20.02;34.72
66102;HTU21D;52883;51.094;5.880;2023-04-21T15:05:34;20.04;35.11
66102;HTU21D;52883;51.094;5.880;2023-04-21T15:08:01;20.13;35.05
66102;HTU21D;52883;51.094;5.880;2023-04-21T15:10:26;20.11;35.13
66102;HTU21D;52883;51.094;5.880;2023-04-21T15:12:54;19.98;34.16
66102;HTU21D;52883;51.094;5.880;2023-04-21T15:15:20;19.73;35.08
66102;HTU21D;52883;51.094;5.880;2023-04-21T15:17:45;19.66;34.79
66102;HTU21D;52883;51.094;5.880;2023-04-21T15:20:11;19.46;36.31